sensor_id;sensor_type;location;lat;lon;timestamp;pressure;altitude;pressure_sealevel;temperature;humidity
64679;BME280;51094;53.864;27.676;2023-08-30T00:01:16;98417.16;;;22.73;63.77
64679;BME280;51094;53.864;27.676;2023-08-30T00:03:43;98414.72;;;22.72;63.77
64679;BME280;51094;53.864;27.676;2023-08-30T00:06:10;98389.09;;;22.52;64.10
64679;BME280;51094;53.864;27.676;2023-08-30T00:08:37;98409.81;;;22.69;63.99
64679;BME280;51094;53.864;27.676;2023-08-30T00:11:04;98390.06;;;22.58;64.11
64679;BME280;51094;53.864;27.676;2023-08-30T00:13:32;98413.91;;;22.65;64.07
64679;BME280;51094;53.864;27.676;2023-08-30T00:16:00;98367.91;;;22.26;64.89
64679;BME280;51094;53.864;27.676;2023-08-30T00:18:30;98403.94;;;22.53;65.01
64679;BME280;51094;53.864;27.676;2023-08-30T00:20:58;98347.31;;;22.15;65.09
64679;BME280;51094;53.864;27.676;2023-08-30T00:23:25;98383.38;;;22.36;65.10
64679;BME280;51094;53.864;27.676;2023-08-30T00:25:52;98397.63;;;22.48;65.10
64679;BME280;51094;53.864;27.676;2023-08-30T00:28:19;98299.66;;;21.88;65.09
64679;BME280;51094;53.864;27.676;2023-08-30T00:30:46;98285.59;;;21.81;65.74
64679;BME280;51094;53.864;27.676;2023-08-30T00:33:13;98321.44;;;21.97;65.69
64679;BME280;51094;53.864;27.676;2023-08-30T00:35:40;98391.94;;;22.44;65.85
64679;BME280;51094;53.864;27.676;2023-08-30T00:38:07;98397.63;;;22.41;65.88
64679;BME280;51094;53.864;27.676;2023-08-30T00:40:40;98288.03;;;21.70;65.96
64679;BME280;51094;53.864;27.676;2023-08-30T00:43:09;98379.91;;;22.35;66.29
64679;BME280;51094;53.864;27.676;2023-08-30T00:45:39;98371.75;;;22.30;67.39
64679;BME280;51094;53.864;27.676;2023-08-30T00:48:06;98376.44;;;22.28;66.75
64679;BME280;51094;53.864;27.676;2023-08-30T00:50:35;98285.41;;;21.63;67.09
64679;BME280;51094;53.864;27.676;2023-08-30T00:53:03;98261.19;;;21.53;67.11
64679;BME280;51094;53.864;27.676;2023-08-30T00:55:34;98429.81;;;22.25;67.29
64679;BME280;51094;53.864;27.676;2023-08-30T00:58:01;98371.56;;;22.25;67.20
64679;BME280;51094;53.864;27.676;2023-08-30T01:00:29;98326.78;;;22.04;67.38
64679;BME280;51094;53.864;27.676;2023-08-30T01:02:57;98357.72;;;22.30;67.58
64679;BME280;51094;53.864;27.676;2023-08-30T01:05:26;98372.16;;;22.27;67.56
64679;BME280;51094;53.864;27.676;2023-08-30T01:07:54;98380.53;;;22.24;67.76
64679;BME280;51094;53.864;27.676;2023-08-30T01:10:58;98326.38;;;22.07;67.75
64679;BME280;51094;53.864;27.676;2023-08-30T01:13:19;98352.81;;;22.20;68.29
64679;BME280;51094;53.864;27.676;2023-08-30T01:15:48;98256.13;;;21.65;68.20
64679;BME280;51094;53.864;27.676;2023-08-30T01:18:18;98356.28;;;22.14;68.53
64679;BME280;51094;53.864;27.676;2023-08-30T01:20:46;98291.72;;;21.82;68.64
64679;BME280;51094;53.864;27.676;2023-08-30T01:23:26;98343.03;;;22.14;68.79
64679;BME280;51094;53.864;27.676;2023-08-30T01:28:45;98272.16;;;21.70;69.09
64679;BME280;51094;53.864;27.676;2023-08-30T01:31:13;98329.41;;;22.10;68.85
64679;BME280;51094;53.864;27.676;2023-08-30T01:33:42;98305.16;;;21.94;69.00
64679;BME280;51094;53.864;27.676;2023-08-30T01:36:09;98291.31;;;21.85;69.37
64679;BME280;51094;53.864;27.676;2023-08-30T01:38:38;98237.16;;;21.48;69.25
64679;BME280;51094;53.864;27.676;2023-08-30T01:41:05;98323.53;;;22.02;69.49
64679;BME280;51094;53.864;27.676;2023-08-30T01:43:32;98323.53;;;22.02;69.89
64679;BME280;51094;53.864;27.676;2023-08-30T01:46:03;98271.34;;;21.69;69.63
64679;BME280;51094;53.864;27.676;2023-08-30T01:48:32;98374.81;;;22.01;69.89
64679;BME280;51094;53.864;27.676;2023-08-30T01:51:01;98319.22;;;22.01;69.89
64679;BME280;51094;53.864;27.676;2023-08-30T01:53:30;98324.50;;;22.01;70.45
64679;BME280;51094;53.864;27.676;2023-08-30T01:55:57;98325.94;;;21.97;70.03
64679;BME280;51094;53.864;27.676;2023-08-30T01:58:24;98316.34;;;21.96;70.04
64679;BME280;51094;53.864;27.676;2023-08-30T02:00:52;98287.22;;;21.69;70.46
64679;BME280;51094;53.864;27.676;2023-08-30T02:03:19;98320.84;;;21.88;70.81
64679;BME280;51094;53.864;27.676;2023-08-30T02:06:07;98334.88;;;21.82;71.27
64679;BME280;51094;53.864;27.676;2023-08-30T02:08:51;98269.09;;;21.40;71.07
64679;BME280;51094;53.864;27.676;2023-08-30T02:11:26;98223.06;;;21.14;71.53
64679;BME280;51094;53.864;27.676;2023-08-30T02:13:57;98358.28;;;21.66;71.26
64679;BME280;51094;53.864;27.676;2023-08-30T02:16:26;98015.28;;;19.80;71.73
64679;BME280;51094;53.864;27.676;2023-08-30T02:18:55;98308.78;;;21.66;71.67
64679;BME280;51094;53.864;27.676;2023-08-30T02:21:22;98303.53;;;21.60;71.65
64679;BME280;51094;53.864;27.676;2023-08-30T02:23:53;98328.75;;;21.75;71.79
64679;BME280;51094;53.864;27.676;2023-08-30T02:26:19;98323.06;;;21.78;71.96
64679;BME280;51094;53.864;27.676;2023-08-30T02:28:46;98227.34;;;21.15;72.18
64679;BME280;51094;53.864;27.676;2023-08-30T02:31:13;98330.97;;;21.72;72.16
64679;BME280;51094;53.864;27.676;2023-08-30T02:33:40;98347.47;;;21.67;72.53
64679;BME280;51094;53.864;27.676;2023-08-30T02:36:07;98355.41;;;21.67;72.61
64679;BME280;51094;53.864;27.676;2023-08-30T02:38:34;98347.47;;;21.67;73.19
64679;BME280;51094;53.864;27.676;2023-08-30T02:41:01;98313.66;;;21.43;72.53
64679;BME280;51094;53.864;27.676;2023-08-30T02:43:28;98336.84;;;21.47;72.87
64679;BME280;51094;53.864;27.676;2023-08-30T02:45:55;98355.00;;;21.70;72.65
64679;BME280;51094;53.864;27.676;2023-08-30T02:48:21;98258.22;;;21.08;72.93
64679;BME280;51094;53.864;27.676;2023-08-30T02:50:49;98315.28;;;21.44;72.78
64679;BME280;51094;53.864;27.676;2023-08-30T02:53:16;98296.13;;;21.29;72.95
64679;BME280;51094;53.864;27.676;2023-08-30T02:55:42;98349.53;;;21.65;73.68
64679;BME280;51094;53.864;27.676;2023-08-30T02:58:09;98266.38;;;21.13;73.23
64679;BME280;51094;53.864;27.676;2023-08-30T03:00:37;98351.75;;;21.68;73.48
64679;BME280;51094;53.864;27.676;2023-08-30T03:03:06;98248.88;;;21.06;73.01
64679;BME280;51094;53.864;27.676;2023-08-30T03:05:33;98348.91;;;21.63;73.55
64679;BME280;51094;53.864;27.676;2023-08-30T03:08:03;98342.59;;;21.64;73.68
64679;BME280;51094;53.864;27.676;2023-08-30T03:10:30;98255.78;;;21.07;73.55
64679;BME280;51094;53.864;27.676;2023-08-30T03:12:56;98360.09;;;21.65;73.54
64679;BME280;51094;53.864;27.676;2023-08-30T03:15:24;98351.94;;;21.60;73.49
64679;BME280;51094;53.864;27.676;2023-08-30T03:17:51;98251.06;;;20.96;73.65
64679;BME280;51094;53.864;27.676;2023-08-30T03:20:18;98366.81;;;21.61;73.75
64679;BME280;51094;53.864;27.676;2023-08-30T03:22:45;98280.22;;;21.15;73.76
64679;BME280;51094;53.864;27.676;2023-08-30T03:25:13;98362.94;;;21.64;73.89
64679;BME280;51094;53.864;27.676;2023-08-30T03:27:40;98358.88;;;21.61;73.67
64679;BME280;51094;53.864;27.676;2023-08-30T03:30:07;98343.41;;;21.58;73.61
64679;BME280;51094;53.864;27.676;2023-08-30T03:32:34;98356.22;;;21.61;73.87
64679;BME280;51094;53.864;27.676;2023-08-30T03:35:02;98357.84;;;21.62;74.08
64679;BME280;51094;53.864;27.676;2023-08-30T03:37:32;98308.94;;;21.32;74.15
64679;BME280;51094;53.864;27.676;2023-08-30T03:39:58;98340.56;;;21.60;73.83
64679;BME280;51094;53.864;27.676;2023-08-30T03:42:25;98308.53;;;21.21;74.22
64679;BME280;51094;53.864;27.676;2023-08-30T03:44:52;98333.78;;;21.44;74.37
64679;BME280;51094;53.864;27.676;2023-08-30T03:47:19;98355.41;;;21.61;74.62
64679;BME280;51094;53.864;27.676;2023-08-30T03:49:46;98352.16;;;21.65;74.70
64679;BME280;51094;53.864;27.676;2023-08-30T03:52:13;98256.81;;;21.06;74.33
64679;BME280;51094;53.864;27.676;2023-08-30T03:54:40;98346.88;;;21.65;74.55
64679;BME280;51094;53.864;27.676;2023-08-30T03:57:07;98348.06;;;21.69;74.56
64679;BME280;51094;53.864;27.676;2023-08-30T03:59:34;98325.47;;;21.53;75.02
64679;BME280;51094;53.864;27.676;2023-08-30T04:02:00;98355.19;;;21.69;74.63
64679;BME280;51094;53.864;27.676;2023-08-30T04:04:28;98288.59;;;21.25;74.67
64679;BME280;51094;53.864;27.676;2023-08-30T04:06:55;98259.13;;;21.22;75.05
64679;BME280;51094;53.864;27.676;2023-08-30T04:09:22;98301.25;;;21.50;74.94
64679;BME280;51094;53.864;27.676;2023-08-30T04:11:48;98344.81;;;21.74;74.90
64679;BME280;51094;53.864;27.676;2023-08-30T04:14:15;98338.94;;;21.65;75.42
64679;BME280;51094;53.864;27.676;2023-08-30T04:16:42;98237.09;;;21.08;75.18
64679;BME280;51094;53.864;27.676;2023-08-30T04:19:09;98293.31;;;21.43;75.15
64679;BME280;51094;53.864;27.676;2023-08-30T04:21:35;98307.34;;;21.44;75.32
64679;BME280;51094;53.864;27.676;2023-08-30T04:24:03;98291.44;;;21.31;76.01
64679;BME280;51094;53.864;27.676;2023-08-30T04:26:30;98356.44;;;21.73;75.94
64679;BME280;51094;53.864;27.676;2023-08-30T04:28:57;98334.03;;;21.69;76.29
64679;BME280;51094;53.864;27.676;2023-08-30T04:31:24;98359.09;;;21.86;76.18
64679;BME280;51094;53.864;27.676;2023-08-30T04:33:52;98349.75;;;21.90;76.29
64679;BME280;51094;53.864;27.676;2023-08-30T04:36:21;98349.34;;;21.93;75.90
64679;BME280;51094;53.864;27.676;2023-08-30T04:38:48;98337.09;;;21.79;75.70
64679;BME280;51094;53.864;27.676;2023-08-30T04:41:28;98361.13;;;21.90;75.99
64679;BME280;51094;53.864;27.676;2023-08-30T04:43:55;98340.56;;;21.79;76.32
64679;BME280;51094;53.864;27.676;2023-08-30T04:46:22;98341.78;;;21.83;76.08
64679;BME280;51094;53.864;27.676;2023-08-30T04:48:49;98365.88;;;22.02;75.95
64679;BME280;51094;53.864;27.676;2023-08-30T04:51:16;98369.50;;;22.01;76.35
64679;BME280;51094;53.864;27.676;2023-08-30T04:53:42;98365.47;;;22.05;76.63
64679;BME280;51094;53.864;27.676;2023-08-30T04:56:11;98374.19;;;22.12;76.58
64679;BME280;51094;53.864;27.676;2023-08-30T04:58:39;98365.25;;;22.06;76.15
64679;BME280;51094;53.864;27.676;2023-08-30T05:01:08;98366.25;;;22.25;75.95
64679;BME280;51094;53.864;27.676;2023-08-30T05:03:37;98361.16;;;22.17;75.98
64679;BME280;51094;53.864;27.676;2023-08-30T05:06:05;98363.00;;;22.30;76.08
64679;BME280;51094;53.864;27.676;2023-08-30T05:08:33;98150.06;;;21.00;75.89
64679;BME280;51094;53.864;27.676;2023-08-30T05:10:59;98257.91;;;21.77;75.94
64679;BME280;51094;53.864;27.676;2023-08-30T05:13:26;98361.38;;;22.48;76.02
64679;BME280;51094;53.864;27.676;2023-08-30T05:15:53;98358.06;;;22.53;75.22
64679;BME280;51094;53.864;27.676;2023-08-30T05:18:20;98379.25;;;22.60;75.32
64679;BME280;51094;53.864;27.676;2023-08-30T05:20:47;98281.53;;;22.12;75.26
64679;BME280;51094;53.864;27.676;2023-08-30T05:23:15;98363.34;;;22.73;75.28
64679;BME280;51094;53.864;27.676;2023-08-30T05:25:42;98337.28;;;22.63;75.34
64679;BME280;51094;53.864;27.676;2023-08-30T05:28:09;98341.13;;;22.67;74.94
64679;BME280;51094;53.864;27.676;2023-08-30T05:30:36;98359.25;;;22.90;74.25
64679;BME280;51094;53.864;27.676;2023-08-30T05:33:13;98261.34;;;22.31;74.29
64679;BME280;51094;53.864;27.676;2023-08-30T05:36:09;98328.69;;;22.81;74.65
64679;BME280;51094;53.864;27.676;2023-08-30T05:38:58;98347.75;;;23.09;74.30
64679;BME280;51094;53.864;27.676;2023-08-30T05:41:36;98341.78;;;23.20;74.05
64679;BME280;51094;53.864;27.676;2023-08-30T05:44:04;98279.56;;;22.85;73.75
64679;BME280;51094;53.864;27.676;2023-08-30T05:46:31;98346.03;;;23.35;73.04
64679;BME280;51094;53.864;27.676;2023-08-30T05:48:58;98319.72;;;23.27;72.99
64679;BME280;51094;53.864;27.676;2023-08-30T05:51:28;98287.78;;;23.08;73.06
64679;BME280;51094;53.864;27.676;2023-08-30T05:53:56;98343.66;;;23.58;73.06
64679;BME280;51094;53.864;27.676;2023-08-30T05:56:23;98333.81;;;23.65;72.31
64679;BME280;51094;53.864;27.676;2023-08-30T05:58:50;98315.72;;;23.55;71.92
64679;BME280;51094;53.864;27.676;2023-08-30T06:01:18;98320.97;;;23.62;71.38
64679;BME280;51094;53.864;27.676;2023-08-30T06:03:46;98328.56;;;23.83;71.23
64679;BME280;51094;53.864;27.676;2023-08-30T06:06:13;98203.41;;;22.99;70.86
64679;BME280;51094;53.864;27.676;2023-08-30T06:08:40;98320.78;;;23.88;71.04
64679;BME280;51094;53.864;27.676;2023-08-30T06:11:07;98334.88;;;24.14;70.36
64679;BME280;51094;53.864;27.676;2023-08-30T06:13:34;98260.28;;;23.72;70.09
64679;BME280;51094;53.864;27.676;2023-08-30T06:16:01;98266.94;;;23.81;69.75
64679;BME280;51094;53.864;27.676;2023-08-30T06:18:30;98323.75;;;24.24;69.55
64679;BME280;51094;53.864;27.676;2023-08-30T06:20:58;98348.91;;;24.46;69.43
64679;BME280;51094;53.864;27.676;2023-08-30T06:23:25;98342.28;;;24.55;68.86
64679;BME280;51094;53.864;27.676;2023-08-30T06:25:56;98349.88;;;24.70;68.98
64679;BME280;51094;53.864;27.676;2023-08-30T06:28:23;98276.84;;;24.36;67.92
64679;BME280;51094;53.864;27.676;2023-08-30T06:30:50;98329.78;;;24.74;67.97
64679;BME280;51094;53.864;27.676;2023-08-30T06:33:17;98296.38;;;24.66;67.23
64679;BME280;51094;53.864;27.676;2023-08-30T06:35:47;98251.84;;;24.43;66.71
64679;BME280;51094;53.864;27.676;2023-08-30T06:38:14;98310.16;;;24.93;66.82
64679;BME280;51094;53.864;27.676;2023-08-30T06:40:45;98363.41;;;25.23;66.16
64679;BME280;51094;53.864;27.676;2023-08-30T06:43:13;98384.63;;;25.30;65.22
64679;BME280;51094;53.864;27.676;2023-08-30T06:45:41;98379.44;;;25.35;65.16
64679;BME280;51094;53.864;27.676;2023-08-30T06:48:08;98353.34;;;25.43;65.01
64679;BME280;51094;53.864;27.676;2023-08-30T06:50:36;98359.97;;;25.52;64.26
64679;BME280;51094;53.864;27.676;2023-08-30T06:53:03;98350.59;;;25.62;64.69
64679;BME280;51094;53.864;27.676;2023-08-30T06:55:30;98305.09;;;25.51;64.20
64679;BME280;51094;53.864;27.676;2023-08-30T06:57:58;98232.91;;;25.06;63.35
64679;BME280;51094;53.864;27.676;2023-08-30T07:00:25;98318.88;;;25.60;62.84
64679;BME280;51094;53.864;27.676;2023-08-30T07:02:51;98335.72;;;25.72;62.71
64679;BME280;51094;53.864;27.676;2023-08-30T07:05:18;98355.72;;;26.05;61.99
64679;BME280;51094;53.864;27.676;2023-08-30T07:07:45;98282.34;;;25.67;62.00
64679;BME280;51094;53.864;27.676;2023-08-30T07:10:12;98352.97;;;26.23;61.71
64679;BME280;51094;53.864;27.676;2023-08-30T07:12:39;98340.44;;;26.12;61.01
64679;BME280;51094;53.864;27.676;2023-08-30T07:15:06;98301.63;;;25.93;60.87
64679;BME280;51094;53.864;27.676;2023-08-30T07:17:33;98247.88;;;25.72;60.91
64679;BME280;51094;53.864;27.676;2023-08-30T07:20:18;98366.78;;;26.55;60.31
64679;BME280;51094;53.864;27.676;2023-08-30T07:22:46;98294.78;;;26.20;60.85
64679;BME280;51094;53.864;27.676;2023-08-30T07:25:13;98131.38;;;25.33;60.00
64679;BME280;51094;53.864;27.676;2023-08-30T07:27:40;98143.34;;;25.53;59.00
64679;BME280;51094;53.864;27.676;2023-08-30T07:30:08;98378.69;;;26.99;59.23
64679;BME280;51094;53.864;27.676;2023-08-30T07:32:35;98341.38;;;26.76;58.60
64679;BME280;51094;53.864;27.676;2023-08-30T07:35:05;98375.78;;;27.12;57.98
64679;BME280;51094;53.864;27.676;2023-08-30T07:37:32;98378.53;;;27.17;57.84
64679;BME280;51094;53.864;27.676;2023-08-30T07:39:59;98378.53;;;27.29;57.82
64679;BME280;51094;53.864;27.676;2023-08-30T07:42:26;98361.25;;;27.20;57.58
64679;BME280;51094;53.864;27.676;2023-08-30T07:44:52;98349.53;;;27.21;57.48
64679;BME280;51094;53.864;27.676;2023-08-30T07:47:19;98374.75;;;27.42;57.01
64679;BME280;51094;53.864;27.676;2023-08-30T07:49:46;98376.56;;;27.53;57.51
64679;BME280;51094;53.864;27.676;2023-08-30T07:52:13;98274.50;;;27.06;57.12
64679;BME280;51094;53.864;27.676;2023-08-30T07:54:41;98366.75;;;27.70;56.35
64679;BME280;51094;53.864;27.676;2023-08-30T07:57:08;98372.44;;;27.91;56.39
64679;BME280;51094;53.864;27.676;2023-08-30T07:59:38;98289.97;;;27.49;56.14
64679;BME280;51094;53.864;27.676;2023-08-30T08:02:06;98339.41;;;27.97;54.84
64679;BME280;51094;53.864;27.676;2023-08-30T08:04:34;98360.56;;;28.15;54.45
64679;BME280;51094;53.864;27.676;2023-08-30T08:07:02;98350.59;;;28.10;54.68
64679;BME280;51094;53.864;27.676;2023-08-30T08:09:31;98309.13;;;27.91;54.87
64679;BME280;51094;53.864;27.676;2023-08-30T08:11:58;98341.84;;;28.48;54.57
64679;BME280;51094;53.864;27.676;2023-08-30T08:14:25;98248.25;;;28.10;54.52
64679;BME280;51094;53.864;27.676;2023-08-30T08:16:52;98366.38;;;29.01;53.35
64679;BME280;51094;53.864;27.676;2023-08-30T08:19:19;98344.28;;;28.72;52.91
64679;BME280;51094;53.864;27.676;2023-08-30T08:21:51;98363.72;;;29.01;53.54
64679;BME280;51094;53.864;27.676;2023-08-30T08:24:21;98223.19;;;28.33;53.70
64679;BME280;51094;53.864;27.676;2023-08-30T08:26:48;98354.22;;;29.37;52.17
64679;BME280;51094;53.864;27.676;2023-08-30T08:29:14;98355.91;;;29.43;50.67
64679;BME280;51094;53.864;27.676;2023-08-30T08:31:41;98334.28;;;29.28;50.62
64679;BME280;51094;53.864;27.676;2023-08-30T08:34:12;98334.91;;;29.35;50.65
64679;BME280;51094;53.864;27.676;2023-08-30T08:36:40;98362.53;;;29.62;49.19
64679;BME280;51094;53.864;27.676;2023-08-30T08:39:08;98359.91;;;29.67;49.19
64679;BME280;51094;53.864;27.676;2023-08-30T08:41:40;98352.53;;;29.79;48.66
64679;BME280;51094;53.864;27.676;2023-08-30T08:44:09;98351.22;;;29.82;48.64
64679;BME280;51094;53.864;27.676;2023-08-30T08:46:37;98368.22;;;29.98;49.31
64679;BME280;51094;53.864;27.676;2023-08-30T08:49:11;98361.94;;;30.14;47.52
64679;BME280;51094;53.864;27.676;2023-08-30T08:51:38;98345.22;;;30.02;47.30
64679;BME280;51094;53.864;27.676;2023-08-30T08:54:06;98308.50;;;30.02;46.53
64679;BME280;51094;53.864;27.676;2023-08-30T08:56:36;98371.19;;;30.28;46.83
64679;BME280;51094;53.864;27.676;2023-08-30T08:59:04;98349.72;;;30.33;47.08
64679;BME280;51094;53.864;27.676;2023-08-30T11:56:08;98227.63;;;42.07;22.08
64679;BME280;51094;53.864;27.676;2023-08-30T11:58:37;98253.59;;;42.38;21.66
64679;BME280;51094;53.864;27.676;2023-08-30T12:01:05;98259.66;;;42.43;21.61
64679;BME280;51094;53.864;27.676;2023-08-30T12:03:33;98235.28;;;43.27;20.96
64679;BME280;51094;53.864;27.676;2023-08-30T12:06:00;98204.66;;;43.65;19.91
64679;BME280;51094;53.864;27.676;2023-08-30T12:08:29;98235.72;;;44.67;19.34
64679;BME280;51094;53.864;27.676;2023-08-30T12:10:57;98210.63;;;45.39;18.67
64679;BME280;51094;53.864;27.676;2023-08-30T12:13:28;98246.44;;;45.88;18.09
64679;BME280;51094;53.864;27.676;2023-08-30T12:15:57;98234.97;;;45.40;18.62
64679;BME280;51094;53.864;27.676;2023-08-30T12:18:27;98231.59;;;45.51;18.77
64679;BME280;51094;53.864;27.676;2023-08-30T12:20:59;98232.22;;;46.05;18.19
64679;BME280;51094;53.864;27.676;2023-08-30T12:23:31;98248.16;;;46.68;17.41
64679;BME280;51094;53.864;27.676;2023-08-30T12:26:07;98229.72;;;46.99;17.41
64679;BME280;51094;53.864;27.676;2023-08-30T12:28:39;98238.63;;;47.19;17.34
64679;BME280;51094;53.864;27.676;2023-08-30T12:31:07;98208.84;;;47.28;16.90
64679;BME280;51094;53.864;27.676;2023-08-30T12:33:34;98220.88;;;46.86;17.24
64679;BME280;51094;53.864;27.676;2023-08-30T12:36:02;98180.31;;;44.58;18.95
64679;BME280;51094;53.864;27.676;2023-08-30T12:38:30;98139.53;;;43.43;20.09
64679;BME280;51094;53.864;27.676;2023-08-30T12:40:57;98204.78;;;43.57;20.89
64679;BME280;51094;53.864;27.676;2023-08-30T12:43:24;98165.38;;;41.89;22.21
64679;BME280;51094;53.864;27.676;2023-08-30T12:45:51;98199.94;;;39.63;24.91
64679;BME280;51094;53.864;27.676;2023-08-30T12:48:18;98195.06;;;38.30;27.10
64679;BME280;51094;53.864;27.676;2023-08-30T12:50:48;98175.09;;;37.64;27.82
64679;BME280;51094;53.864;27.676;2023-08-30T12:53:15;98189.84;;;37.27;28.62
64679;BME280;51094;53.864;27.676;2023-08-30T12:55:43;98171.16;;;36.81;28.29
64679;BME280;51094;53.864;27.676;2023-08-30T12:58:10;98137.91;;;35.98;29.87
64679;BME280;51094;53.864;27.676;2023-08-30T13:00:38;98184.44;;;35.67;30.70
64679;BME280;51094;53.864;27.676;2023-08-30T13:03:05;98175.56;;;35.34;31.53
64679;BME280;51094;53.864;27.676;2023-08-30T13:05:33;98153.81;;;35.07;31.79
64679;BME280;51094;53.864;27.676;2023-08-30T13:08:00;98185.94;;;35.09;32.25
64679;BME280;51094;53.864;27.676;2023-08-30T13:10:27;98158.63;;;34.73;33.01
64679;BME280;51094;53.864;27.676;2023-08-30T13:12:54;98179.19;;;34.50;33.71
64679;BME280;51094;53.864;27.676;2023-08-30T13:15:22;98184.47;;;34.12;34.12
64679;BME280;51094;53.864;27.676;2023-08-30T13:17:49;98173.34;;;33.95;34.86
64679;BME280;51094;53.864;27.676;2023-08-30T13:20:17;98177.66;;;33.67;35.18
64679;BME280;51094;53.864;27.676;2023-08-30T13:22:45;98198.66;;;33.99;34.68
64679;BME280;51094;53.864;27.676;2023-08-30T13:25:12;98094.84;;;33.72;34.50
64679;BME280;51094;53.864;27.676;2023-08-30T13:27:45;98175.06;;;34.10;34.54
64679;BME280;51094;53.864;27.676;2023-08-30T13:30:13;98171.22;;;35.01;33.29
64679;BME280;51094;53.864;27.676;2023-08-30T13:32:40;98163.72;;;37.09;30.05
64679;BME280;51094;53.864;27.676;2023-08-30T13:35:08;98146.00;;;36.53;30.28
64679;BME280;51094;53.864;27.676;2023-08-30T13:37:35;98128.84;;;35.48;31.65
64679;BME280;51094;53.864;27.676;2023-08-30T13:40:03;98138.63;;;34.55;33.16
64679;BME280;51094;53.864;27.676;2023-08-30T13:42:35;98174.38;;;33.99;34.27
64679;BME280;51094;53.864;27.676;2023-08-30T13:45:03;98145.75;;;33.45;34.42
64679;BME280;51094;53.864;27.676;2023-08-30T13:47:33;98167.84;;;33.47;34.16
64679;BME280;51094;53.864;27.676;2023-08-30T13:50:01;98106.81;;;32.98;33.50
64679;BME280;51094;53.864;27.676;2023-08-30T13:52:30;98169.09;;;33.31;33.02
64679;BME280;51094;53.864;27.676;2023-08-30T13:54:57;98105.75;;;32.94;33.16
64679;BME280;51094;53.864;27.676;2023-08-30T13:57:24;98157.75;;;33.34;33.74
64679;BME280;51094;53.864;27.676;2023-08-30T13:59:51;98104.81;;;32.80;33.56
64679;BME280;51094;53.864;27.676;2023-08-30T14:02:18;98089.94;;;32.44;34.59
64679;BME280;51094;53.864;27.676;2023-08-30T14:04:47;98115.59;;;32.26;34.97
64679;BME280;51094;53.864;27.676;2023-08-30T14:07:14;98099.81;;;31.99;35.41
64679;BME280;51094;53.864;27.676;2023-08-30T14:09:41;98130.41;;;32.08;35.75
64679;BME280;51094;53.864;27.676;2023-08-30T14:12:08;98126.44;;;31.95;35.08
64679;BME280;51094;53.864;27.676;2023-08-30T14:14:35;98148.22;;;31.94;36.37
64679;BME280;51094;53.864;27.676;2023-08-30T14:17:03;98179.16;;;31.91;36.93
64679;BME280;51094;53.864;27.676;2023-08-30T14:19:30;98148.53;;;31.72;36.84
64679;BME280;51094;53.864;27.676;2023-08-30T14:21:57;98136.47;;;31.54;37.23
64679;BME280;51094;53.864;27.676;2023-08-30T14:24:24;98062.38;;;31.07;37.46
64679;BME280;51094;53.864;27.676;2023-08-30T14:26:51;98170.84;;;31.83;37.37
64679;BME280;51094;53.864;27.676;2023-08-30T14:29:20;98171.66;;;31.73;37.26
64679;BME280;51094;53.864;27.676;2023-08-30T14:31:48;98182.13;;;31.59;37.77
64679;BME280;51094;53.864;27.676;2023-08-30T14:34:15;98161.97;;;31.26;37.52
64679;BME280;51094;53.864;27.676;2023-08-30T14:36:42;98102.63;;;30.72;38.49
64679;BME280;51094;53.864;27.676;2023-08-30T14:39:10;98194.19;;;31.06;38.19
64679;BME280;51094;53.864;27.676;2023-08-30T14:41:37;98116.19;;;30.45;38.95
64679;BME280;51094;53.864;27.676;2023-08-30T14:44:05;98219.66;;;30.93;38.81
64679;BME280;51094;53.864;27.676;2023-08-30T14:46:32;98099.81;;;30.31;39.05
64679;BME280;51094;53.864;27.676;2023-08-30T14:48:59;98188.47;;;30.82;38.87
64679;BME280;51094;53.864;27.676;2023-08-30T14:51:26;98177.22;;;30.75;39.34
64679;BME280;51094;53.864;27.676;2023-08-30T14:53:53;98174.25;;;30.66;39.63
64679;BME280;51094;53.864;27.676;2023-08-30T14:56:20;98165.53;;;30.44;39.83
64679;BME280;51094;53.864;27.676;2023-08-30T14:58:47;98145.94;;;30.28;40.47
64679;BME280;51094;53.864;27.676;2023-08-30T15:01:16;98180.78;;;30.33;40.63
64679;BME280;51094;53.864;27.676;2023-08-30T15:03:43;98160.88;;;30.14;41.21
64679;BME280;51094;53.864;27.676;2023-08-30T15:06:10;98194.16;;;30.18;42.84
64679;BME280;51094;53.864;27.676;2023-08-30T15:08:40;98122.47;;;29.56;42.02
64679;BME280;51094;53.864;27.676;2023-08-30T15:11:07;98169.75;;;29.40;42.79
64679;BME280;51094;53.864;27.676;2023-08-30T15:13:35;98156.47;;;29.56;42.97
64679;BME280;51094;53.864;27.676;2023-08-30T15:16:04;98054.53;;;28.93;43.05
64679;BME280;51094;53.864;27.676;2023-08-30T15:18:32;98165.91;;;29.63;43.32
64679;BME280;51094;53.864;27.676;2023-08-30T15:20:59;98179.28;;;29.58;43.56
64679;BME280;51094;53.864;27.676;2023-08-30T15:23:26;98181.09;;;29.53;43.51
64679;BME280;51094;53.864;27.676;2023-08-30T15:25:53;98057.88;;;28.78;43.76
64679;BME280;51094;53.864;27.676;2023-08-30T15:28:21;98172.22;;;29.42;44.17
64679;BME280;51094;53.864;27.676;2023-08-30T15:30:48;98154.34;;;29.26;44.10
64679;BME280;51094;53.864;27.676;2023-08-30T15:33:17;98159.66;;;29.21;44.42
64679;BME280;51094;53.864;27.676;2023-08-30T15:35:47;98144.25;;;29.01;44.65
64679;BME280;51094;53.864;27.676;2023-08-30T15:38:14;98192.66;;;29.26;44.67
64679;BME280;51094;53.864;27.676;2023-08-30T15:40:42;98158.56;;;29.17;44.70
64679;BME280;51094;53.864;27.676;2023-08-30T15:43:10;98184.88;;;29.25;44.66
64679;BME280;51094;53.864;27.676;2023-08-30T15:45:38;98156.47;;;28.92;44.96
64679;BME280;51094;53.864;27.676;2023-08-30T15:48:05;98206.63;;;29.01;45.18
64679;BME280;51094;53.864;27.676;2023-08-30T15:50:33;98296.44;;;28.92;41.21
64679;BME280;51094;53.864;27.676;2023-08-30T15:53:00;98285.97;;;27.97;40.83